sensor_id;sensor_type;location;lat;lon;timestamp;P1;durP1;ratioP1;P2;durP2;ratioP2
12784;SDS011;6456;42.680;23.260;2023-03-31T00:00:25;14.67;;;8.17;;
12784;SDS011;6456;42.680;23.260;2023-03-31T00:02:52;11.37;;;7.60;;
12784;SDS011;6456;42.680;23.260;2023-03-31T00:05:20;10.57;;;7.70;;
12784;SDS011;6456;42.680;23.260;2023-03-31T00:07:52;13.43;;;8.37;;
12784;SDS011;6456;42.680;23.260;2023-03-31T00:10:29;11.70;;;7.53;;
12784;SDS011;6456;42.680;23.260;2023-03-31T00:13:02;12.03;;;7.40;;
12784;SDS011;6456;42.680;23.260;2023-03-31T00:15:42;10.27;;;6.97;;
12784;SDS011;6456;42.680;23.260;2023-03-31T00:18:27;11.23;;;8.00;;
12784;SDS011;6456;42.680;23.260;2023-03-31T00:20:58;9.50;;;7.53;;
12784;SDS011;6456;42.680;23.260;2023-03-31T00:23:31;10.37;;;6.90;;
12784;SDS011;6456;42.680;23.260;2023-03-31T00:25:59;10.73;;;7.63;;
12784;SDS011;6456;42.680;23.260;2023-03-31T00:28:27;10.90;;;7.23;;
12784;SDS011;6456;42.680;23.260;2023-03-31T00:30:58;9.73;;;7.00;;
12784;SDS011;6456;42.680;23.260;2023-03-31T00:33:26;10.50;;;7.57;;
12784;SDS011;6456;42.680;23.260;2023-03-31T00:35:58;10.77;;;7.57;;
12784;SDS011;6456;42.680;23.260;2023-03-31T00:38:26;11.43;;;7.27;;
12784;SDS011;6456;42.680;23.260;2023-03-31T00:40:54;13.43;;;7.03;;
12784;SDS011;6456;42.680;23.260;2023-03-31T00:43:31;9.47;;;7.23;;
12784;SDS011;6456;42.680;23.260;2023-03-31T00:46:02;10.63;;;6.87;;
12784;SDS011;6456;42.680;23.260;2023-03-31T00:48:37;8.70;;;7.23;;
12784;SDS011;6456;42.680;23.260;2023-03-31T00:51:06;10.97;;;7.07;;
12784;SDS011;6456;42.680;23.260;2023-03-31T00:53:34;8.63;;;6.30;;
12784;SDS011;6456;42.680;23.260;2023-03-31T00:56:06;9.80;;;6.83;;
12784;SDS011;6456;42.680;23.260;2023-03-31T00:58:39;8.57;;;6.57;;
12784;SDS011;6456;42.680;23.260;2023-03-31T01:01:09;10.03;;;7.17;;
12784;SDS011;6456;42.680;23.260;2023-03-31T01:03:40;14.83;;;7.13;;
12784;SDS011;6456;42.680;23.260;2023-03-31T01:06:11;9.50;;;6.37;;
12784;SDS011;6456;42.680;23.260;2023-03-31T01:08:43;9.87;;;7.17;;
12784;SDS011;6456;42.680;23.260;2023-03-31T01:11:13;10.97;;;6.77;;
12784;SDS011;6456;42.680;23.260;2023-03-31T01:13:43;12.30;;;7.37;;
12784;SDS011;6456;42.680;23.260;2023-03-31T01:16:14;11.47;;;7.73;;
12784;SDS011;6456;42.680;23.260;2023-03-31T01:18:41;12.27;;;7.43;;
12784;SDS011;6456;42.680;23.260;2023-03-31T01:27:35;11.93;;;7.57;;
12784;SDS011;6456;42.680;23.260;2023-03-31T01:40:04;11.80;;;8.97;;
12784;SDS011;6456;42.680;23.260;2023-03-31T01:42:43;12.47;;;8.10;;
12784;SDS011;6456;42.680;23.260;2023-03-31T01:45:21;14.00;;;8.50;;
12784;SDS011;6456;42.680;23.260;2023-03-31T01:47:56;14.40;;;9.00;;
12784;SDS011;6456;42.680;23.260;2023-03-31T01:50:34;13.63;;;8.40;;
12784;SDS011;6456;42.680;23.260;2023-03-31T01:53:04;12.97;;;7.90;;
12784;SDS011;6456;42.680;23.260;2023-03-31T01:55:45;12.83;;;7.83;;
12784;SDS011;6456;42.680;23.260;2023-03-31T01:58:17;12.20;;;8.20;;
12784;SDS011;6456;42.680;23.260;2023-03-31T02:00:48;10.33;;;7.77;;
12784;SDS011;6456;42.680;23.260;2023-03-31T02:03:27;13.63;;;7.83;;
12784;SDS011;6456;42.680;23.260;2023-03-31T02:05:59;13.53;;;8.17;;
12784;SDS011;6456;42.680;23.260;2023-03-31T02:08:33;12.43;;;7.97;;
12784;SDS011;6456;42.680;23.260;2023-03-31T02:11:07;12.93;;;8.43;;
12784;SDS011;6456;42.680;23.260;2023-03-31T02:13:35;12.33;;;8.20;;
12784;SDS011;6456;42.680;23.260;2023-03-31T02:16:07;12.10;;;7.67;;
12784;SDS011;6456;42.680;23.260;2023-03-31T02:18:38;11.93;;;8.17;;
12784;SDS011;6456;42.680;23.260;2023-03-31T02:21:07;7.53;;;5.70;;
12784;SDS011;6456;42.680;23.260;2023-03-31T02:23:36;6.50;;;3.90;;
12784;SDS011;6456;42.680;23.260;2023-03-31T02:26:05;2.77;;;1.90;;
12784;SDS011;6456;42.680;23.260;2023-03-31T02:28:37;2.70;;;1.50;;
12784;SDS011;6456;42.680;23.260;2023-03-31T02:31:07;2.20;;;1.50;;
12784;SDS011;6456;42.680;23.260;2023-03-31T02:33:45;2.23;;;1.20;;
12784;SDS011;6456;42.680;23.260;2023-03-31T02:36:13;1.90;;;1.17;;
12784;SDS011;6456;42.680;23.260;2023-03-31T02:38:41;2.87;;;1.53;;
12784;SDS011;6456;42.680;23.260;2023-03-31T02:41:12;1.90;;;1.70;;
12784;SDS011;6456;42.680;23.260;2023-03-31T02:43:40;1.60;;;1.50;;
12784;SDS011;6456;42.680;23.260;2023-03-31T02:46:07;2.30;;;1.60;;
12784;SDS011;6456;42.680;23.260;2023-03-31T02:48:36;2.00;;;1.67;;
12784;SDS011;6456;42.680;23.260;2023-03-31T02:54:14;2.93;;;1.70;;
12784;SDS011;6456;42.680;23.260;2023-03-31T02:57:06;3.13;;;1.77;;
12784;SDS011;6456;42.680;23.260;2023-03-31T02:59:51;2.07;;;1.40;;
12784;SDS011;6456;42.680;23.260;2023-03-31T03:02:33;5.13;;;2.00;;
12784;SDS011;6456;42.680;23.260;2023-03-31T03:05:18;2.13;;;1.43;;
12784;SDS011;6456;42.680;23.260;2023-03-31T03:07:54;11.73;;;2.23;;
12784;SDS011;6456;42.680;23.260;2023-03-31T03:10:34;2.80;;;2.10;;
12784;SDS011;6456;42.680;23.260;2023-03-31T03:13:15;3.43;;;1.50;;
12784;SDS011;6456;42.680;23.260;2023-03-31T03:15:48;2.37;;;1.80;;
12784;SDS011;6456;42.680;23.260;2023-03-31T03:18:23;2.97;;;1.77;;
12784;SDS011;6456;42.680;23.260;2023-03-31T03:20:51;3.10;;;1.77;;
12784;SDS011;6456;42.680;23.260;2023-03-31T03:23:18;2.97;;;1.90;;
12784;SDS011;6456;42.680;23.260;2023-03-31T03:25:48;2.50;;;1.63;;
12784;SDS011;6456;42.680;23.260;2023-03-31T03:28:16;2.03;;;1.90;;
12784;SDS011;6456;42.680;23.260;2023-03-31T03:30:44;3.13;;;1.80;;
12784;SDS011;6456;42.680;23.260;2023-03-31T03:33:11;2.13;;;1.60;;
12784;SDS011;6456;42.680;23.260;2023-03-31T03:35:41;2.83;;;1.67;;
12784;SDS011;6456;42.680;23.260;2023-03-31T03:38:08;3.03;;;1.80;;
12784;SDS011;6456;42.680;23.260;2023-03-31T03:40:35;1.53;;;1.43;;
12784;SDS011;6456;42.680;23.260;2023-03-31T03:43:02;2.10;;;1.73;;
12784;SDS011;6456;42.680;23.260;2023-03-31T03:45:30;2.97;;;1.93;;
12784;SDS011;6456;42.680;23.260;2023-03-31T03:47:57;2.60;;;1.83;;
12784;SDS011;6456;42.680;23.260;2023-03-31T03:50:24;2.77;;;1.80;;
12784;SDS011;6456;42.680;23.260;2023-03-31T03:52:51;2.27;;;1.57;;
12784;SDS011;6456;42.680;23.260;2023-03-31T03:55:18;2.63;;;1.90;;
12784;SDS011;6456;42.680;23.260;2023-03-31T03:57:45;3.67;;;1.97;;
12784;SDS011;6456;42.680;23.260;2023-03-31T04:00:12;2.27;;;1.70;;
12784;SDS011;6456;42.680;23.260;2023-03-31T04:02:40;2.80;;;1.70;;
12784;SDS011;6456;42.680;23.260;2023-03-31T04:05:08;2.13;;;1.60;;
12784;SDS011;6456;42.680;23.260;2023-03-31T04:07:35;1.90;;;1.70;;
12784;SDS011;6456;42.680;23.260;2023-03-31T04:10:02;2.90;;;1.90;;
12784;SDS011;6456;42.680;23.260;2023-03-31T04:12:29;4.03;;;1.77;;
12784;SDS011;6456;42.680;23.260;2023-03-31T04:14:56;4.67;;;2.03;;
12784;SDS011;6456;42.680;23.260;2023-03-31T04:17:22;3.43;;;1.90;;
12784;SDS011;6456;42.680;23.260;2023-03-31T04:19:58;4.77;;;2.57;;
12784;SDS011;6456;42.680;23.260;2023-03-31T04:22:28;4.87;;;2.30;;
12784;SDS011;6456;42.680;23.260;2023-03-31T04:24:59;3.10;;;2.33;;
12784;SDS011;6456;42.680;23.260;2023-03-31T04:27:26;4.03;;;2.30;;
12784;SDS011;6456;42.680;23.260;2023-03-31T04:29:55;2.53;;;1.97;;
12784;SDS011;6456;42.680;23.260;2023-03-31T04:32:22;4.17;;;1.77;;
12784;SDS011;6456;42.680;23.260;2023-03-31T04:34:49;2.97;;;1.90;;
12784;SDS011;6456;42.680;23.260;2023-03-31T04:37:17;5.40;;;2.60;;
12784;SDS011;6456;42.680;23.260;2023-03-31T04:39:44;2.97;;;2.13;;
12784;SDS011;6456;42.680;23.260;2023-03-31T04:42:14;3.67;;;1.90;;
12784;SDS011;6456;42.680;23.260;2023-03-31T04:44:41;1.80;;;1.70;;
12784;SDS011;6456;42.680;23.260;2023-03-31T04:47:08;2.83;;;1.80;;
12784;SDS011;6456;42.680;23.260;2023-03-31T04:49:35;2.30;;;1.80;;
12784;SDS011;6456;42.680;23.260;2023-03-31T04:52:02;3.80;;;2.00;;
12784;SDS011;6456;42.680;23.260;2023-03-31T04:54:32;3.50;;;1.80;;
12784;SDS011;6456;42.680;23.260;2023-03-31T04:56:59;2.90;;;1.80;;
12784;SDS011;6456;42.680;23.260;2023-03-31T04:59:26;3.97;;;1.60;;
12784;SDS011;6456;42.680;23.260;2023-03-31T05:01:52;1.50;;;1.33;;
12784;SDS011;6456;42.680;23.260;2023-03-31T05:04:20;2.10;;;1.30;;
12784;SDS011;6456;42.680;23.260;2023-03-31T05:06:48;2.47;;;1.70;;
12784;SDS011;6456;42.680;23.260;2023-03-31T05:09:15;3.63;;;1.50;;
12784;SDS011;6456;42.680;23.260;2023-03-31T05:11:44;2.00;;;1.80;;
12784;SDS011;6456;42.680;23.260;2023-03-31T05:14:11;3.27;;;2.40;;
12784;SDS011;6456;42.680;23.260;2023-03-31T05:16:38;2.40;;;1.97;;
12784;SDS011;6456;42.680;23.260;2023-03-31T05:19:06;3.03;;;2.10;;
12784;SDS011;6456;42.680;23.260;2023-03-31T05:21:33;2.37;;;1.57;;
12784;SDS011;6456;42.680;23.260;2023-03-31T05:24:00;1.87;;;1.63;;
12784;SDS011;6456;42.680;23.260;2023-03-31T05:26:27;1.33;;;1.23;;
12784;SDS011;6456;42.680;23.260;2023-03-31T05:28:55;2.60;;;1.63;;
12784;SDS011;6456;42.680;23.260;2023-03-31T05:31:22;2.20;;;1.47;;
12784;SDS011;6456;42.680;23.260;2023-03-31T05:33:49;1.70;;;1.60;;
12784;SDS011;6456;42.680;23.260;2023-03-31T05:36:16;4.20;;;1.70;;
12784;SDS011;6456;42.680;23.260;2023-03-31T05:38:43;4.47;;;1.60;;
12784;SDS011;6456;42.680;23.260;2023-03-31T05:41:10;5.33;;;2.30;;
12784;SDS011;6456;42.680;23.260;2023-03-31T05:43:37;1.87;;;1.67;;
12784;SDS011;6456;42.680;23.260;2023-03-31T05:46:05;5.43;;;1.87;;
12784;SDS011;6456;42.680;23.260;2023-03-31T05:48:32;1.53;;;1.43;;
12784;SDS011;6456;42.680;23.260;2023-03-31T05:50:59;2.47;;;1.70;;
12784;SDS011;6456;42.680;23.260;2023-03-31T05:53:26;4.37;;;1.87;;
12784;SDS011;6456;42.680;23.260;2023-03-31T05:55:57;4.70;;;2.20;;
12784;SDS011;6456;42.680;23.260;2023-03-31T05:58:24;4.60;;;1.90;;
12784;SDS011;6456;42.680;23.260;2023-03-31T06:00:59;2.60;;;1.73;;
12784;SDS011;6456;42.680;23.260;2023-03-31T06:03:28;1.87;;;1.70;;
12784;SDS011;6456;42.680;23.260;2023-03-31T06:05:55;4.20;;;1.80;;
12784;SDS011;6456;42.680;23.260;2023-03-31T06:08:22;2.90;;;1.80;;
12784;SDS011;6456;42.680;23.260;2023-03-31T06:10:49;4.23;;;1.70;;
12784;SDS011;6456;42.680;23.260;2023-03-31T06:13:17;2.03;;;1.50;;
12784;SDS011;6456;42.680;23.260;2023-03-31T06:15:51;3.97;;;1.70;;
12784;SDS011;6456;42.680;23.260;2023-03-31T06:18:18;2.30;;;1.57;;
12784;SDS011;6456;42.680;23.260;2023-03-31T06:20:47;3.57;;;1.80;;
12784;SDS011;6456;42.680;23.260;2023-03-31T06:23:13;4.37;;;1.93;;
12784;SDS011;6456;42.680;23.260;2023-03-31T06:25:40;3.60;;;1.63;;
12784;SDS011;6456;42.680;23.260;2023-03-31T06:28:07;7.43;;;2.00;;
12784;SDS011;6456;42.680;23.260;2023-03-31T06:30:34;1.97;;;1.60;;
12784;SDS011;6456;42.680;23.260;2023-03-31T06:33:01;7.03;;;1.83;;
12784;SDS011;6456;42.680;23.260;2023-03-31T06:35:28;2.67;;;1.97;;
12784;SDS011;6456;42.680;23.260;2023-03-31T06:37:56;2.60;;;1.90;;
12784;SDS011;6456;42.680;23.260;2023-03-31T06:40:23;3.93;;;1.50;;
12784;SDS011;6456;42.680;23.260;2023-03-31T06:42:50;1.63;;;1.47;;
12784;SDS011;6456;42.680;23.260;2023-03-31T06:45:17;3.00;;;2.13;;
12784;SDS011;6456;42.680;23.260;2023-03-31T06:47:44;3.30;;;2.30;;
12784;SDS011;6456;42.680;23.260;2023-03-31T06:50:11;5.20;;;2.20;;
12784;SDS011;6456;42.680;23.260;2023-03-31T06:52:38;4.00;;;2.20;;
12784;SDS011;6456;42.680;23.260;2023-03-31T06:55:06;5.17;;;2.40;;
12784;SDS011;6456;42.680;23.260;2023-03-31T06:57:34;3.10;;;1.97;;
12784;SDS011;6456;42.680;23.260;2023-03-31T07:00:02;4.83;;;2.00;;
12784;SDS011;6456;42.680;23.260;2023-03-31T07:02:29;4.87;;;1.87;;
12784;SDS011;6456;42.680;23.260;2023-03-31T07:04:56;5.20;;;2.00;;
12784;SDS011;6456;42.680;23.260;2023-03-31T07:07:24;3.73;;;1.83;;
12784;SDS011;6456;42.680;23.260;2023-03-31T07:09:51;4.50;;;2.20;;
12784;SDS011;6456;42.680;23.260;2023-03-31T07:12:19;3.77;;;2.00;;
12784;SDS011;6456;42.680;23.260;2023-03-31T07:14:46;5.60;;;2.03;;
12784;SDS011;6456;42.680;23.260;2023-03-31T07:17:13;4.63;;;2.87;;
12784;SDS011;6456;42.680;23.260;2023-03-31T07:19:40;5.53;;;2.70;;
12784;SDS011;6456;42.680;23.260;2023-03-31T07:22:07;6.83;;;2.60;;
12784;SDS011;6456;42.680;23.260;2023-03-31T07:24:33;6.33;;;3.30;;
12784;SDS011;6456;42.680;23.260;2023-03-31T07:27:00;5.10;;;2.33;;
12784;SDS011;6456;42.680;23.260;2023-03-31T07:29:28;5.30;;;3.00;;
12784;SDS011;6456;42.680;23.260;2023-03-31T07:31:55;6.50;;;2.83;;
12784;SDS011;6456;42.680;23.260;2023-03-31T07:34:22;3.17;;;2.73;;
12784;SDS011;6456;42.680;23.260;2023-03-31T07:36:49;5.30;;;2.70;;
12784;SDS011;6456;42.680;23.260;2023-03-31T07:39:16;4.77;;;2.63;;
12784;SDS011;6456;42.680;23.260;2023-03-31T07:41:43;6.67;;;3.20;;
12784;SDS011;6456;42.680;23.260;2023-03-31T07:44:10;5.63;;;2.70;;
12784;SDS011;6456;42.680;23.260;2023-03-31T07:46:38;6.47;;;3.53;;
12784;SDS011;6456;42.680;23.260;2023-03-31T07:49:05;2.93;;;2.37;;
12784;SDS011;6456;42.680;23.260;2023-03-31T07:51:33;4.10;;;2.70;;
12784;SDS011;6456;42.680;23.260;2023-03-31T07:54:00;2.90;;;2.60;;
12784;SDS011;6456;42.680;23.260;2023-03-31T07:56:27;3.10;;;2.43;;
12784;SDS011;6456;42.680;23.260;2023-03-31T07:58:56;3.50;;;2.50;;
12784;SDS011;6456;42.680;23.260;2023-03-31T08:01:23;3.30;;;2.87;;
12784;SDS011;6456;42.680;23.260;2023-03-31T08:03:55;5.10;;;3.27;;
12784;SDS011;6456;42.680;23.260;2023-03-31T08:06:23;5.13;;;2.90;;
12784;SDS011;6456;42.680;23.260;2023-03-31T08:08:51;4.83;;;2.50;;
12784;SDS011;6456;42.680;23.260;2023-03-31T08:11:18;2.60;;;2.40;;
12784;SDS011;6456;42.680;23.260;2023-03-31T08:13:45;6.93;;;2.80;;
12784;SDS011;6456;42.680;23.260;2023-03-31T08:16:12;3.87;;;2.20;;
12784;SDS011;6456;42.680;23.260;2023-03-31T08:18:39;8.27;;;3.03;;
12784;SDS011;6456;42.680;23.260;2023-03-31T08:21:07;6.10;;;2.43;;
12784;SDS011;6456;42.680;23.260;2023-03-31T08:23:37;4.53;;;2.50;;
12784;SDS011;6456;42.680;23.260;2023-03-31T08:26:08;4.13;;;2.37;;
12784;SDS011;6456;42.680;23.260;2023-03-31T08:28:37;5.43;;;2.80;;
12784;SDS011;6456;42.680;23.260;2023-03-31T08:31:04;5.93;;;2.40;;
12784;SDS011;6456;42.680;23.260;2023-03-31T08:33:31;5.63;;;2.60;;
12784;SDS011;6456;42.680;23.260;2023-03-31T08:36:00;5.97;;;2.50;;
12784;SDS011;6456;42.680;23.260;2023-03-31T08:38:30;6.10;;;2.53;;
12784;SDS011;6456;42.680;23.260;2023-03-31T08:40:57;5.53;;;2.50;;
12784;SDS011;6456;42.680;23.260;2023-03-31T08:43:26;6.43;;;2.90;;
12784;SDS011;6456;42.680;23.260;2023-03-31T08:45:55;4.60;;;2.20;;
12784;SDS011;6456;42.680;23.260;2023-03-31T08:48:23;4.80;;;2.37;;
12784;SDS011;6456;42.680;23.260;2023-03-31T08:50:55;3.73;;;2.13;;
12784;SDS011;6456;42.680;23.260;2023-03-31T08:53:25;3.30;;;2.40;;
12784;SDS011;6456;42.680;23.260;2023-03-31T08:55:56;5.87;;;2.30;;
12784;SDS011;6456;42.680;23.260;2023-03-31T08:58:31;5.13;;;2.23;;
12784;SDS011;6456;42.680;23.260;2023-03-31T09:01:06;4.57;;;2.17;;
12784;SDS011;6456;42.680;23.260;2023-03-31T09:03:42;4.00;;;1.80;;
12784;SDS011;6456;42.680;23.260;2023-03-31T09:06:17;5.77;;;2.43;;
12784;SDS011;6456;42.680;23.260;2023-03-31T09:08:47;23.97;;;4.07;;
12784;SDS011;6456;42.680;23.260;2023-03-31T09:11:19;8.07;;;2.50;;
12784;SDS011;6456;42.680;23.260;2023-03-31T09:14:11;5.97;;;2.10;;
12784;SDS011;6456;42.680;23.260;2023-03-31T09:16:53;5.10;;;2.30;;
12784;SDS011;6456;42.680;23.260;2023-03-31T09:19:34;5.53;;;2.20;;
12784;SDS011;6456;42.680;23.260;2023-03-31T09:22:04;7.60;;;2.27;;
12784;SDS011;6456;42.680;23.260;2023-03-31T09:24:39;4.13;;;2.00;;
12784;SDS011;6456;42.680;23.260;2023-03-31T09:27:15;3.97;;;2.00;;
12784;SDS011;6456;42.680;23.260;2023-03-31T09:29:44;5.27;;;2.17;;
12784;SDS011;6456;42.680;23.260;2023-03-31T09:32:16;3.90;;;2.23;;
12784;SDS011;6456;42.680;23.260;2023-03-31T09:34:44;4.13;;;2.07;;
12784;SDS011;6456;42.680;23.260;2023-03-31T09:37:11;3.50;;;1.80;;
12784;SDS011;6456;42.680;23.260;2023-03-31T09:39:39;7.23;;;2.23;;
12784;SDS011;6456;42.680;23.260;2023-03-31T09:42:07;3.20;;;1.73;;
12784;SDS011;6456;42.680;23.260;2023-03-31T09:44:39;6.67;;;2.10;;
12784;SDS011;6456;42.680;23.260;2023-03-31T09:47:09;5.87;;;2.40;;
12784;SDS011;6456;42.680;23.260;2023-03-31T09:49:41;5.10;;;2.00;;
12784;SDS011;6456;42.680;23.260;2023-03-31T09:52:12;6.33;;;2.23;;
12784;SDS011;6456;42.680;23.260;2023-03-31T09:54:46;7.87;;;2.00;;
12784;SDS011;6456;42.680;23.260;2023-03-31T09:57:22;4.47;;;1.93;;
12784;SDS011;6456;42.680;23.260;2023-03-31T09:59:52;4.20;;;1.53;;
12784;SDS011;6456;42.680;23.260;2023-03-31T10:02:38;5.33;;;2.07;;
12784;SDS011;6456;42.680;23.260;2023-03-31T10:05:07;3.70;;;1.73;;
12784;SDS011;6456;42.680;23.260;2023-03-31T10:07:46;1.87;;;1.50;;
12784;SDS011;6456;42.680;23.260;2023-03-31T10:10:17;4.87;;;2.00;;
12784;SDS011;6456;42.680;23.260;2023-03-31T10:12:53;4.53;;;1.97;;
12784;SDS011;6456;42.680;23.260;2023-03-31T10:15:24;3.30;;;2.00;;
12784;SDS011;6456;42.680;23.260;2023-03-31T10:17:52;3.50;;;2.10;;
12784;SDS011;6456;42.680;23.260;2023-03-31T10:20:33;2.37;;;1.53;;
12784;SDS011;6456;42.680;23.260;2023-03-31T10:23:04;5.20;;;1.80;;
12784;SDS011;6456;42.680;23.260;2023-03-31T10:25:40;4.50;;;1.93;;
12784;SDS011;6456;42.680;23.260;2023-03-31T10:28:11;9.00;;;2.00;;
12784;SDS011;6456;42.680;23.260;2023-03-31T10:30:46;3.60;;;1.67;;
12784;SDS011;6456;42.680;23.260;2023-03-31T10:33:15;3.23;;;1.80;;
12784;SDS011;6456;42.680;23.260;2023-03-31T10:35:44;3.00;;;1.93;;
12784;SDS011;6456;42.680;23.260;2023-03-31T10:38:14;4.83;;;1.83;;
12784;SDS011;6456;42.680;23.260;2023-03-31T10:40:49;4.07;;;1.97;;
12784;SDS011;6456;42.680;23.260;2023-03-31T10:43:19;3.60;;;2.07;;
12784;SDS011;6456;42.680;23.260;2023-03-31T10:45:51;4.80;;;1.60;;
12784;SDS011;6456;42.680;23.260;2023-03-31T10:48:24;5.07;;;1.80;;
12784;SDS011;6456;42.680;23.260;2023-03-31T10:50:54;4.57;;;1.60;;
12784;SDS011;6456;42.680;23.260;2023-03-31T10:53:25;3.00;;;1.80;;
12784;SDS011;6456;42.680;23.260;2023-03-31T10:55:58;5.40;;;1.90;;
12784;SDS011;6456;42.680;23.260;2023-03-31T10:58:57;9.43;;;2.00;;
12784;SDS011;6456;42.680;23.260;2023-03-31T11:01:44;2.53;;;1.70;;
12784;SDS011;6456;42.680;23.260;2023-03-31T11:07:31;3.40;;;2.03;;
12784;SDS011;6456;42.680;23.260;2023-03-31T11:13:03;2.23;;;1.60;;
12784;SDS011;6456;42.680;23.260;2023-03-31T11:15:38;2.33;;;1.83;;
12784;SDS011;6456;42.680;23.260;2023-03-31T11:18:17;4.07;;;2.13;;
12784;SDS011;6456;42.680;23.260;2023-03-31T11:20:59;3.30;;;1.70;;
12784;SDS011;6456;42.680;23.260;2023-03-31T11:23:39;4.87;;;1.97;;
12784;SDS011;6456;42.680;23.260;2023-03-31T11:26:11;2.53;;;1.60;;
12784;SDS011;6456;42.680;23.260;2023-03-31T11:28:55;4.37;;;1.90;;
12784;SDS011;6456;42.680;23.260;2023-03-31T11:31:39;5.03;;;2.30;;
12784;SDS011;6456;42.680;23.260;2023-03-31T11:34:24;3.97;;;2.10;;
12784;SDS011;6456;42.680;23.260;2023-03-31T11:37:10;7.77;;;2.63;;
12784;SDS011;6456;42.680;23.260;2023-03-31T11:40:05;6.10;;;2.30;;
12784;SDS011;6456;42.680;23.260;2023-03-31T11:42:45;4.57;;;2.00;;
12784;SDS011;6456;42.680;23.260;2023-03-31T11:45:17;5.40;;;1.83;;
12784;SDS011;6456;42.680;23.260;2023-03-31T11:47:51;5.20;;;2.20;;
12784;SDS011;6456;42.680;23.260;2023-03-31T11:50:27;4.87;;;2.10;;
12784;SDS011;6456;42.680;23.260;2023-03-31T11:52:59;6.07;;;2.30;;
12784;SDS011;6456;42.680;23.260;2023-03-31T11:55:29;4.90;;;2.10;;
12784;SDS011;6456;42.680;23.260;2023-03-31T11:58:00;2.67;;;1.93;;
12784;SDS011;6456;42.680;23.260;2023-03-31T12:00:30;4.03;;;1.83;;
12784;SDS011;6456;42.680;23.260;2023-03-31T12:03:03;6.20;;;2.17;;
12784;SDS011;6456;42.680;23.260;2023-03-31T12:05:39;4.23;;;1.90;;
12784;SDS011;6456;42.680;23.260;2023-03-31T12:08:14;2.10;;;1.90;;
12784;SDS011;6456;42.680;23.260;2023-03-31T12:10:52;5.57;;;2.30;;
12784;SDS011;6456;42.680;23.260;2023-03-31T12:16:14;5.97;;;2.40;;
12784;SDS011;6456;42.680;23.260;2023-03-31T12:18:55;4.30;;;1.90;;
12784;SDS011;6456;42.680;23.260;2023-03-31T12:21:29;5.80;;;1.90;;
12784;SDS011;6456;42.680;23.260;2023-03-31T12:24:03;3.40;;;1.80;;
12784;SDS011;6456;42.680;23.260;2023-03-31T12:26:33;3.57;;;1.87;;
12784;SDS011;6456;42.680;23.260;2023-03-31T12:29:10;3.80;;;2.03;;
12784;SDS011;6456;42.680;23.260;2023-03-31T12:31:47;3.03;;;1.97;;
12784;SDS011;6456;42.680;23.260;2023-03-31T12:34:16;3.53;;;1.93;;
12784;SDS011;6456;42.680;23.260;2023-03-31T12:36:53;4.80;;;1.90;;
12784;SDS011;6456;42.680;23.260;2023-03-31T12:39:39;2.53;;;1.77;;
12784;SDS011;6456;42.680;23.260;2023-03-31T12:42:34;3.03;;;1.80;;
12784;SDS011;6456;42.680;23.260;2023-03-31T12:45:12;5.27;;;2.00;;
12784;SDS011;6456;42.680;23.260;2023-03-31T12:50:49;4.60;;;1.80;;
12784;SDS011;6456;42.680;23.260;2023-03-31T12:53:32;3.33;;;1.90;;
12784;SDS011;6456;42.680;23.260;2023-03-31T12:56:08;4.70;;;1.90;;
12784;SDS011;6456;42.680;23.260;2023-03-31T12:58:39;3.93;;;1.80;;
12784;SDS011;6456;42.680;23.260;2023-03-31T13:01:12;5.93;;;2.17;;
12784;SDS011;6456;42.680;23.260;2023-03-31T13:03:42;2.43;;;1.77;;
12784;SDS011;6456;42.680;23.260;2023-03-31T13:12:18;4.80;;;1.73;;
12784;SDS011;6456;42.680;23.260;2023-03-31T13:14:47;4.57;;;1.70;;
12784;SDS011;6456;42.680;23.260;2023-03-31T13:17:25;3.57;;;1.70;;
12784;SDS011;6456;42.680;23.260;2023-03-31T13:19:55;5.37;;;2.03;;
12784;SDS011;6456;42.680;23.260;2023-03-31T13:22:41;4.53;;;1.60;;
12784;SDS011;6456;42.680;23.260;2023-03-31T13:31:07;3.53;;;1.73;;
12784;SDS011;6456;42.680;23.260;2023-03-31T13:42:24;3.07;;;1.60;;
12784;SDS011;6456;42.680;23.260;2023-03-31T13:45:17;4.93;;;1.73;;
12784;SDS011;6456;42.680;23.260;2023-03-31T13:47:57;4.37;;;1.87;;
12784;SDS011;6456;42.680;23.260;2023-03-31T13:50:45;2.73;;;1.53;;
12784;SDS011;6456;42.680;23.260;2023-03-31T13:53:31;2.60;;;1.60;;
12784;SDS011;6456;42.680;23.260;2023-03-31T13:56:24;2.93;;;1.70;;
12784;SDS011;6456;42.680;23.260;2023-03-31T13:59:19;3.40;;;2.03;;
12784;SDS011;6456;42.680;23.260;2023-03-31T14:02:37;7.23;;;2.07;;
12784;SDS011;6456;42.680;23.260;2023-03-31T14:05:20;3.47;;;1.57;;
12784;SDS011;6456;42.680;23.260;2023-03-31T14:08:01;5.07;;;1.87;;
12784;SDS011;6456;42.680;23.260;2023-03-31T14:10:37;9.60;;;2.80;;
12784;SDS011;6456;42.680;23.260;2023-03-31T14:13:05;2.83;;;1.80;;
12784;SDS011;6456;42.680;23.260;2023-03-31T14:15:34;6.57;;;1.90;;
12784;SDS011;6456;42.680;23.260;2023-03-31T14:18:04;2.60;;;1.60;;
12784;SDS011;6456;42.680;23.260;2023-03-31T14:20:44;2.23;;;1.63;;
12784;SDS011;6456;42.680;23.260;2023-03-31T14:23:25;3.90;;;1.67;;
12784;SDS011;6456;42.680;23.260;2023-03-31T14:26:02;5.20;;;2.00;;
12784;SDS011;6456;42.680;23.260;2023-03-31T14:28:36;5.27;;;1.93;;
12784;SDS011;6456;42.680;23.260;2023-03-31T14:31:14;4.27;;;1.70;;
12784;SDS011;6456;42.680;23.260;2023-03-31T14:33:49;4.10;;;1.77;;
12784;SDS011;6456;42.680;23.260;2023-03-31T14:36:37;5.17;;;1.93;;
12784;SDS011;6456;42.680;23.260;2023-03-31T14:39:11;2.87;;;1.90;;
12784;SDS011;6456;42.680;23.260;2023-03-31T14:41:43;3.10;;;1.73;;
12784;SDS011;6456;42.680;23.260;2023-03-31T14:44:11;3.60;;;1.77;;
12784;SDS011;6456;42.680;23.260;2023-03-31T14:46:41;5.23;;;1.70;;
12784;SDS011;6456;42.680;23.260;2023-03-31T14:49:17;3.17;;;2.03;;
12784;SDS011;6456;42.680;23.260;2023-03-31T14:51:47;3.10;;;1.80;;
12784;SDS011;6456;42.680;23.260;2023-03-31T14:54:14;4.60;;;2.00;;
12784;SDS011;6456;42.680;23.260;2023-03-31T14:56:45;2.60;;;1.90;;
12784;SDS011;6456;42.680;23.260;2023-03-31T14:59:17;5.67;;;2.10;;
12784;SDS011;6456;42.680;23.260;2023-03-31T15:01:52;2.50;;;1.40;;
12784;SDS011;6456;42.680;23.260;2023-03-31T15:04:24;6.40;;;2.00;;
12784;SDS011;6456;42.680;23.260;2023-03-31T15:06:57;5.17;;;1.97;;
12784;SDS011;6456;42.680;23.260;2023-03-31T15:09:27;4.27;;;1.57;;
12784;SDS011;6456;42.680;23.260;2023-03-31T15:11:57;4.27;;;1.63;;
12784;SDS011;6456;42.680;23.260;2023-03-31T15:14:27;3.30;;;1.80;;
12784;SDS011;6456;42.680;23.260;2023-03-31T15:16:55;4.23;;;2.03;;
12784;SDS011;6456;42.680;23.260;2023-03-31T15:19:24;3.20;;;2.20;;
12784;SDS011;6456;42.680;23.260;2023-03-31T15:21:57;4.27;;;2.30;;
12784;SDS011;6456;42.680;23.260;2023-03-31T15:24:28;4.30;;;1.83;;
12784;SDS011;6456;42.680;23.260;2023-03-31T15:26:56;4.53;;;2.17;;
12784;SDS011;6456;42.680;23.260;2023-03-31T15:29:29;2.93;;;2.13;;
12784;SDS011;6456;42.680;23.260;2023-03-31T15:32:02;3.50;;;1.93;;
12784;SDS011;6456;42.680;23.260;2023-03-31T15:34:33;4.10;;;1.70;;
12784;SDS011;6456;42.680;23.260;2023-03-31T15:37:02;4.00;;;2.00;;
12784;SDS011;6456;42.680;23.260;2023-03-31T15:39:32;6.30;;;2.37;;
12784;SDS011;6456;42.680;23.260;2023-03-31T15:42:02;6.23;;;2.30;;
12784;SDS011;6456;42.680;23.260;2023-03-31T15:44:36;5.87;;;2.53;;
12784;SDS011;6456;42.680;23.260;2023-03-31T15:47:05;5.00;;;2.50;;
12784;SDS011;6456;42.680;23.260;2023-03-31T15:49:39;7.30;;;3.10;;
12784;SDS011;6456;42.680;23.260;2023-03-31T15:52:18;5.83;;;3.00;;
12784;SDS011;6456;42.680;23.260;2023-03-31T15:54:49;7.20;;;3.00;;
12784;SDS011;6456;42.680;23.260;2023-03-31T15:57:17;5.27;;;2.60;;
12784;SDS011;6456;42.680;23.260;2023-03-31T15:59:45;5.33;;;2.57;;
12784;SDS011;6456;42.680;23.260;2023-03-31T16:02:15;6.73;;;3.03;;
12784;SDS011;6456;42.680;23.260;2023-03-31T16:04:47;3.27;;;2.20;;